Time;durP1;ratioP1;P1;durP2;ratioP2;P2;SDS_P1;SDS_P2;PMS_P1;PMS_P2;Temp;Humidity;BMP_temperature;BMP_pressure;BME280_temperature;BME280_humidity;BME280_pressure;Samples;Min_cycle;Max_cycle;Signal;HPM_P1;HPM_P2
2022/11/21 00:01:53;;;;;;;24.40;15.32;;;1.00;99.90;;;;;;4883212;29;20040;-71
2022/11/21 00:04:19;;;;;;;25.20;15.35;;;1.10;99.90;;;;;;4881674;29;20059;-72
2022/11/21 00:06:44;;;;;;;28.48;16.02;;;1.10;99.90;;;;;;4863270;29;20167;-71
2022/11/21 00:09:10;;;;;;;23.20;14.90;;;1.30;99.90;;;;;;4885145;29;20041;-72
2022/11/21 00:11:36;;;;;;;48.65;26.65;;;1.40;99.90;;;;;;4882195;29;20167;-72
2022/11/21 00:14:01;;;;;;;21.13;12.77;;;1.40;99.90;;;;;;4880538;29;20573;-72
2022/11/21 00:16:27;;;;;;;16.88;10.70;;;1.40;99.90;;;;;;4877081;29;20043;-71
2022/11/21 00:18:52;;;;;;;11.95;8.35;;;1.20;99.90;;;;;;4880208;29;20140;-72
2022/11/21 00:21:19;;;;;;;14.10;8.88;;;1.20;99.90;;;;;;4879712;29;20490;-70
2022/11/21 00:23:46;;;;;;;18.23;9.82;;;1.20;99.90;;;;;;4879521;29;20527;-71
2022/11/21 00:26:13;;;;;;;20.52;12.18;;;1.10;99.90;;;;;;4876006;29;20034;-71
2022/11/21 00:28:39;;;;;;;16.65;10.27;;;1.10;99.90;;;;;;4878307;29;20036;-71
2022/11/21 00:31:05;;;;;;;17.80;10.13;;;1.10;99.90;;;;;;4876895;29;20048;-71
2022/11/21 00:33:33;;;;;;;15.57;8.95;;;1.10;99.90;;;;;;4878822;29;20036;-71
2022/11/21 00:36:05;;;;;;;16.83;9.98;;;1.00;99.90;;;;;;4878916;29;20049;-71
2022/11/21 00:38:30;;;;;;;13.85;8.77;;;1.00;99.90;;;;;;4876402;29;20147;-71
2022/11/21 00:40:56;;;;;;;17.80;10.05;;;1.00;99.90;;;;;;4859070;29;20292;-72
2022/11/21 00:43:22;;;;;;;17.83;10.57;;;1.00;99.90;;;;;;4866529;29;20052;-71
2022/11/21 00:45:47;;;;;;;23.73;12.85;;;1.10;99.90;;;;;;4868356;29;20506;-71
2022/11/21 00:48:13;;;;;;;29.38;17.25;;;1.10;99.90;;;;;;4866691;29;20037;-70
2022/11/21 00:50:38;;;;;;;25.80;15.15;;;1.10;99.90;;;;;;4870483;29;20060;-71
2022/11/21 00:53:04;;;;;;;30.75;17.55;;;1.10;99.90;;;;;;4887363;29;20048;-70
2022/11/21 00:55:29;;;;;;;31.40;18.50;;;1.10;99.90;;;;;;4888737;29;20078;-72
2022/11/21 00:57:55;;;;;;;25.30;15.02;;;1.10;99.90;;;;;;4893840;29;20698;-72
2022/11/21 01:00:21;;;;;;;14.90;9.52;;;1.10;99.90;;;;;;4893401;29;20151;-71
2022/11/21 01:02:46;;;;;;;12.90;8.25;;;1.10;99.90;;;;;;4891990;29;20124;-71
2022/11/21 01:05:12;;;;;;;20.80;12.35;;;0.90;99.90;;;;;;4889205;29;20032;-71
2022/11/21 01:07:37;;;;;;;25.58;12.20;;;0.70;99.90;;;;;;4886440;29;20157;-71
2022/11/21 01:10:03;;;;;;;18.33;11.40;;;0.70;99.90;;;;;;4883732;29;20343;-71
2022/11/21 01:12:30;;;;;;;17.35;10.43;;;0.50;99.90;;;;;;4884862;29;20040;-71
2022/11/21 01:14:56;;;;;;;21.80;13.15;;;0.50;99.90;;;;;;4884743;29;20029;-71
2022/11/21 01:17:21;;;;;;;28.23;14.48;;;0.40;99.90;;;;;;4864657;29;20043;-70
2022/11/21 01:19:47;;;;;;;28.65;14.73;;;0.60;99.90;;;;;;4884837;29;20040;-71
2022/11/21 01:22:12;;;;;;;24.02;13.43;;;0.60;99.90;;;;;;4888417;29;20044;-71
2022/11/21 01:24:38;;;;;;;26.00;14.68;;;0.70;99.90;;;;;;4890834;29;20040;-72
2022/11/21 01:27:03;;;;;;;23.33;13.27;;;0.90;99.90;;;;;;4879707;29;20032;-72
2022/11/21 01:29:29;;;;;;;51.22;14.70;;;0.90;99.90;;;;;;4887980;29;20048;-75
2022/11/21 01:31:55;;;;;;;24.85;14.05;;;0.90;99.90;;;;;;4885545;29;20032;-73
2022/11/21 01:34:21;;;;;;;32.13;13.10;;;0.90;99.90;;;;;;4877494;29;20041;-74
2022/11/21 01:36:47;;;;;;;34.45;17.67;;;0.90;99.90;;;;;;4884138;29;23703;-74
2022/11/21 01:39:12;;;;;;;28.98;15.07;;;1.00;99.90;;;;;;4886631;29;20820;-73
2022/11/21 01:41:44;;;;;;;39.55;15.32;;;1.10;99.90;;;;;;4882563;29;20104;-74
2022/11/21 01:44:42;;;;;;;27.42;14.30;;;1.20;99.90;;;;;;4883853;29;20036;-73
2022/11/21 01:47:08;;;;;;;46.58;15.30;;;1.10;99.90;;;;;;4882338;29;20072;-74
2022/11/21 01:49:33;;;;;;;36.30;14.60;;;1.20;99.90;;;;;;4878347;29;20108;-74
2022/11/21 01:52:04;;;;;;;51.67;15.32;;;1.20;99.90;;;;;;4881875;29;20198;-73
2022/11/21 01:54:45;;;;;;;40.08;16.05;;;1.10;99.90;;;;;;4884965;29;20040;-73
2022/11/21 01:57:20;;;;;;;66.40;17.45;;;1.10;99.90;;;;;;4884138;29;20904;-73
2022/11/21 01:59:48;;;;;;;46.50;17.58;;;1.20;99.90;;;;;;4886343;29;20952;-73
2022/11/21 02:02:19;;;;;;;46.13;17.92;;;1.30;99.90;;;;;;4884761;29;23721;-73
2022/11/21 02:04:47;;;;;;;87.10;18.77;;;1.40;99.90;;;;;;4870441;29;20075;-74
2022/11/21 02:07:15;;;;;;;38.22;18.17;;;1.50;99.90;;;;;;4885227;29;20993;-73
2022/11/21 02:09:45;;;;;;;36.00;17.60;;;1.50;99.90;;;;;;4887699;29;20076;-73
2022/11/21 02:12:22;;;;;;;32.38;17.15;;;1.60;99.90;;;;;;4886122;29;20109;-73
2022/11/21 02:14:48;;;;;;;26.85;16.58;;;1.70;99.90;;;;;;4886668;29;20044;-73
2022/11/21 02:17:17;;;;;;;32.65;16.58;;;1.70;99.90;;;;;;4879013;29;20150;-73
2022/11/21 02:19:54;;;;;;;26.38;16.55;;;1.70;99.90;;;;;;4885454;29;20070;-73
2022/11/21 02:22:38;;;;;;;51.20;15.75;;;1.80;99.90;;;;;;4887571;29;20040;-73
2022/11/21 02:25:08;;;;;;;35.25;17.35;;;1.80;99.90;;;;;;4888773;29;20036;-73
2022/11/21 02:27:33;;;;;;;53.33;16.30;;;1.70;99.90;;;;;;4884689;29;20067;-73
2022/11/21 02:30:01;;;;;;;51.40;17.23;;;1.70;99.90;;;;;;4880600;29;20087;-72
2022/11/21 02:32:33;;;;;;;29.80;14.90;;;1.60;99.90;;;;;;4863972;29;20044;-73
2022/11/21 02:34:59;;;;;;;28.33;16.40;;;1.60;99.90;;;;;;4884530;29;20046;-73
2022/11/21 02:37:25;;;;;;;40.13;16.20;;;1.60;99.90;;;;;;4884156;29;20025;-74
2022/11/21 02:39:50;;;;;;;27.70;16.30;;;1.60;99.90;;;;;;4884276;29;20036;-73
2022/11/21 02:42:20;;;;;;;35.20;16.23;;;1.60;99.90;;;;;;4882618;29;21848;-73
2022/11/21 02:45:24;;;;;;;31.10;16.58;;;1.70;99.90;;;;;;4882921;29;20052;-73
2022/11/21 02:47:53;;;;;;;24.92;15.23;;;1.70;99.90;;;;;;4879489;29;20167;-73
2022/11/21 02:50:24;;;;;;;29.90;16.65;;;1.70;99.90;;;;;;4882203;29;20044;-73
2022/11/21 02:52:50;;;;;;;31.58;17.20;;;1.80;99.90;;;;;;4885069;29;20072;-73
2022/11/21 02:55:15;;;;;;;33.42;16.88;;;1.80;99.90;;;;;;4885322;29;20177;-73
2022/11/21 02:57:41;;;;;;;53.22;18.95;;;1.90;99.90;;;;;;4886917;29;20122;-73
2022/11/21 03:00:08;;;;;;;59.35;19.20;;;2.00;99.90;;;;;;4885125;29;20617;-74
2022/11/21 03:02:34;;;;;;;91.57;19.63;;;2.00;99.90;;;;;;4889978;29;20037;-73
2022/11/21 03:05:01;;;;;;;51.83;19.95;;;2.00;99.90;;;;;;4885882;29;20044;-73
2022/11/21 03:07:26;;;;;;;67.05;19.63;;;2.00;99.90;;;;;;4886841;29;20536;-73
2022/11/21 03:09:52;;;;;;;57.15;21.10;;;2.10;99.90;;;;;;4886069;29;20047;-73
2022/11/21 03:12:18;;;;;;;79.10;20.60;;;2.10;99.90;;;;;;4890276;29;20048;-73
2022/11/21 03:14:43;;;;;;;178.80;21.15;;;2.10;99.90;;;;;;4887826;29;20040;-73
2022/11/21 03:17:09;;;;;;;81.82;16.90;;;2.10;99.90;;;;;;4886043;29;20151;-73
2022/11/21 03:19:34;;;;;;;80.55;17.67;;;2.00;99.90;;;;;;4884936;29;20036;-74
2022/11/21 03:22:00;;;;;;;56.88;18.08;;;2.00;99.90;;;;;;4889829;29;20056;-74
2022/11/21 03:24:25;;;;;;;34.33;18.35;;;2.00;99.90;;;;;;4888276;29;21021;-74
2022/11/21 03:26:51;;;;;;;113.53;17.25;;;2.00;99.90;;;;;;4889909;29;20135;-74
2022/11/21 03:29:17;;;;;;;32.28;17.98;;;2.00;99.90;;;;;;4887148;29;20123;-73
2022/11/21 03:31:42;;;;;;;52.90;17.05;;;1.90;99.90;;;;;;4890267;29;20052;-73
2022/11/21 03:34:08;;;;;;;78.47;16.63;;;2.00;99.90;;;;;;4888281;29;20275;-73
2022/11/21 03:36:33;;;;;;;52.42;17.35;;;1.90;99.90;;;;;;4890076;29;20099;-73
2022/11/21 03:38:59;;;;;;;81.43;16.35;;;1.90;99.90;;;;;;4893610;29;20051;-74
2022/11/21 03:41:29;;;;;;;40.60;15.95;;;1.80;99.90;;;;;;4888897;29;20039;-70
2022/11/21 03:44:01;;;;;;;37.90;16.95;;;1.70;99.90;;;;;;4892289;29;20538;-69
2022/11/21 03:46:28;;;;;;;48.03;17.02;;;1.70;99.90;;;;;;4884331;29;20191;-69
2022/11/21 03:48:54;;;;;;;28.38;16.95;;;1.70;99.90;;;;;;4887587;29;20044;-69
2022/11/21 03:51:20;;;;;;;29.13;16.70;;;1.70;99.90;;;;;;4877410;29;20064;-69
2022/11/21 03:53:46;;;;;;;36.25;16.17;;;1.80;99.90;;;;;;4866881;29;20091;-69
2022/11/21 03:56:12;;;;;;;35.30;17.27;;;1.80;99.90;;;;;;4855893;29;20581;-69
2022/11/21 03:58:38;;;;;;;25.58;16.45;;;1.80;99.90;;;;;;4869151;29;20041;-69
2022/11/21 04:01:04;;;;;;;41.60;15.95;;;1.70;99.90;;;;;;4868624;29;20045;-69
2022/11/21 04:03:30;;;;;;;28.33;16.88;;;1.70;99.90;;;;;;4860592;29;20112;-69
2022/11/21 04:05:56;;;;;;;26.23;15.43;;;1.70;99.90;;;;;;4866206;29;20055;-69
2022/11/21 04:08:21;;;;;;;25.17;14.77;;;1.80;99.90;;;;;;4867727;29;20498;-69
2022/11/21 04:10:51;;;;;;;31.15;16.65;;;1.80;99.90;;;;;;4872026;29;21241;-69
2022/11/21 04:13:17;;;;;;;36.10;16.50;;;1.70;99.90;;;;;;4872173;29;20565;-69
2022/11/21 04:15:43;;;;;;;25.58;16.20;;;1.70;99.90;;;;;;4871333;29;20068;-68
2022/11/21 04:18:10;;;;;;;24.75;15.13;;;1.70;99.90;;;;;;4869262;29;22871;-68
2022/11/21 04:20:36;;;;;;;27.63;15.65;;;1.60;99.90;;;;;;4865934;29;20581;-68
2022/11/21 04:23:01;;;;;;;25.10;15.57;;;1.60;99.90;;;;;;4872144;29;20037;-69
2022/11/21 04:25:27;;;;;;;24.27;15.48;;;1.60;99.90;;;;;;4869892;29;20056;-69
2022/11/21 04:27:57;;;;;;;22.73;14.20;;;1.50;99.90;;;;;;4871339;29;20088;-69
2022/11/21 04:30:23;;;;;;;33.00;15.80;;;1.40;99.90;;;;;;4869705;29;21195;-68
2022/11/21 04:32:52;;;;;;;27.90;15.88;;;1.40;99.90;;;;;;4876543;29;20519;-69
2022/11/21 04:35:17;;;;;;;33.53;15.63;;;1.20;99.90;;;;;;4874022;29;20073;-69
2022/11/21 04:37:43;;;;;;;25.02;16.10;;;1.20;99.90;;;;;;4870499;29;20210;-69
2022/11/21 04:40:10;;;;;;;22.20;15.90;;;1.10;99.90;;;;;;4872680;29;20144;-68
2022/11/21 04:42:35;;;;;;;24.48;15.30;;;1.30;99.90;;;;;;4869134;29;20040;-69
2022/11/21 04:45:01;;;;;;;25.70;15.27;;;1.40;99.90;;;;;;4871163;29;20548;-69
2022/11/21 04:47:26;;;;;;;36.08;16.00;;;1.40;99.90;;;;;;4870733;29;20112;-68
2022/11/21 04:49:52;;;;;;;28.98;16.23;;;1.40;99.90;;;;;;4866646;29;20052;-69
2022/11/21 04:52:18;;;;;;;39.80;17.25;;;1.40;99.90;;;;;;4872188;29;20094;-68
2022/11/21 04:54:43;;;;;;;43.78;17.17;;;1.40;99.90;;;;;;4871930;29;20036;-68
2022/11/21 04:57:09;;;;;;;37.10;16.58;;;1.20;99.90;;;;;;4873097;29;20044;-68
2022/11/21 04:59:35;;;;;;;45.40;16.58;;;1.20;99.90;;;;;;4872098;29;20476;-68
2022/11/21 05:02:02;;;;;;;42.28;15.65;;;1.20;99.90;;;;;;4870556;29;20064;-69
2022/11/21 05:04:28;;;;;;;112.82;16.05;;;1.10;99.90;;;;;;4870465;29;20048;-68
2022/11/21 05:06:53;;;;;;;31.27;14.32;;;1.10;99.90;;;;;;4873401;29;20124;-68
2022/11/21 05:09:19;;;;;;;25.55;13.68;;;1.10;99.90;;;;;;4870563;29;20071;-68
2022/11/21 05:14:29;;;;;;;25.50;14.27;;;1.20;99.90;;;;;;4863729;29;20116;-69
2022/11/21 05:16:54;;;;;;;32.55;14.55;;;1.20;99.90;;;;;;4872866;29;20486;-68
2022/11/21 05:19:20;;;;;;;21.80;13.85;;;1.20;99.90;;;;;;4869846;29;20501;-68
2022/11/21 05:21:46;;;;;;;49.03;13.70;;;1.20;99.90;;;;;;4870745;29;20045;-68
2022/11/21 05:24:11;;;;;;;83.70;15.23;;;1.30;99.90;;;;;;4871776;29;20056;-68
2022/11/21 05:26:37;;;;;;;52.33;14.18;;;1.20;99.90;;;;;;4864654;29;22050;-68
2022/11/21 05:29:03;;;;;;;67.97;14.63;;;1.20;99.90;;;;;;4869234;29;20075;-68
2022/11/21 05:31:29;;;;;;;78.00;15.00;;;1.00;99.90;;;;;;4865112;29;20139;-68
2022/11/21 05:33:55;;;;;;;105.20;15.15;;;1.00;99.90;;;;;;4877954;29;20529;-69
2022/11/21 05:36:20;;;;;;;57.00;14.32;;;0.90;99.90;;;;;;4856487;29;20048;-69
2022/11/21 05:38:46;;;;;;;48.58;12.73;;;0.80;99.90;;;;;;4870790;29;20652;-68
2022/11/21 05:41:11;;;;;;;79.47;12.68;;;0.90;99.90;;;;;;4867719;29;20044;-68
2022/11/21 05:43:46;;;;;;;95.20;14.18;;;0.80;99.90;;;;;;4866729;29;21080;-69
2022/11/21 05:46:14;;;;;;;44.90;14.32;;;0.80;99.90;;;;;;4868252;29;20055;-68
2022/11/21 05:48:39;;;;;;;43.67;13.70;;;0.80;99.90;;;;;;4868699;29;20044;-69
2022/11/21 05:51:05;;;;;;;47.97;13.45;;;0.80;99.90;;;;;;4864874;29;20055;-69
2022/11/21 05:53:30;;;;;;;34.88;13.70;;;0.90;99.90;;;;;;4870061;29;20036;-69
2022/11/21 05:56:04;;;;;;;48.45;17.13;;;0.80;99.90;;;;;;4870575;29;20048;-68
2022/11/21 05:58:30;;;;;;;40.63;18.75;;;0.80;99.90;;;;;;4870105;29;20036;-69
2022/11/21 06:00:57;;;;;;;45.35;19.20;;;0.80;99.90;;;;;;4872011;29;20043;-69
2022/11/21 06:03:26;;;;;;;30.48;17.27;;;0.90;99.90;;;;;;4868216;29;20041;-69
2022/11/21 06:05:59;;;;;;;36.15;19.65;;;0.90;99.90;;;;;;4873628;29;20044;-69
2022/11/21 06:08:29;;;;;;;38.50;18.35;;;1.00;99.90;;;;;;4873648;29;20104;-69
2022/11/21 06:10:55;;;;;;;43.72;19.88;;;1.00;99.90;;;;;;4872005;29;20144;-69
2022/11/21 06:13:20;;;;;;;34.60;18.30;;;1.00;99.90;;;;;;4865374;29;20029;-70
2022/11/21 06:15:51;;;;;;;34.65;18.92;;;1.00;99.90;;;;;;4874084;29;20045;-69
2022/11/21 06:18:17;;;;;;;31.50;16.60;;;1.10;99.90;;;;;;4861550;29;20825;-70
2022/11/21 06:20:43;;;;;;;32.72;18.00;;;1.10;99.90;;;;;;4877100;29;20036;-70
2022/11/21 06:23:08;;;;;;;32.97;17.80;;;1.10;99.90;;;;;;4878051;29;20064;-70
2022/11/21 06:25:34;;;;;;;43.97;17.20;;;1.20;99.90;;;;;;4881340;29;20045;-68
2022/11/21 06:27:59;;;;;;;45.50;16.73;;;1.20;99.90;;;;;;4871351;29;20072;-68
2022/11/21 06:30:25;;;;;;;39.63;16.85;;;1.10;99.90;;;;;;4867523;29;20510;-68
2022/11/21 06:32:51;;;;;;;72.38;15.95;;;1.20;99.90;;;;;;4864180;29;20472;-68
2022/11/21 06:35:16;;;;;;;43.00;15.27;;;1.20;99.90;;;;;;4868826;29;20047;-68
2022/11/21 06:37:42;;;;;;;69.85;15.15;;;1.20;99.90;;;;;;4867957;29;20120;-68
2022/11/21 06:40:08;;;;;;;49.22;16.17;;;1.20;99.90;;;;;;4847185;29;20059;-69
2022/11/21 06:42:34;;;;;;;30.10;15.27;;;1.10;99.90;;;;;;4846922;29;20045;-68
2022/11/21 06:44:59;;;;;;;76.55;16.33;;;1.10;99.90;;;;;;4866632;29;20072;-68
2022/11/21 06:47:25;;;;;;;62.17;15.55;;;1.10;99.90;;;;;;4871714;29;20045;-68
2022/11/21 06:49:50;;;;;;;68.95;16.73;;;1.00;99.90;;;;;;4872839;29;20080;-68
2022/11/21 06:52:16;;;;;;;48.80;14.80;;;1.00;99.90;;;;;;4870829;29;20074;-68
2022/11/21 06:54:41;;;;;;;63.78;14.60;;;1.00;99.90;;;;;;4874952;29;20048;-68
2022/11/21 06:57:07;;;;;;;82.72;13.63;;;0.90;99.90;;;;;;4876953;29;20037;-68
2022/11/21 06:59:33;;;;;;;31.17;14.20;;;0.90;99.90;;;;;;4874838;29;20054;-68
2022/11/21 07:01:59;;;;;;;47.63;14.20;;;0.80;99.90;;;;;;4872835;29;20048;-69
2022/11/21 07:04:24;;;;;;;49.80;13.90;;;0.80;99.90;;;;;;4874983;29;20123;-68
2022/11/21 07:06:50;;;;;;;91.03;14.88;;;0.90;99.90;;;;;;4874870;29;20096;-68
2022/11/21 07:09:16;;;;;;;40.28;15.15;;;0.90;99.90;;;;;;4868657;29;20072;-67
2022/11/21 07:11:41;;;;;;;92.68;14.40;;;1.00;99.90;;;;;;4867537;29;20045;-67
2022/11/21 07:14:07;;;;;;;78.32;14.93;;;1.00;99.90;;;;;;4870476;29;20037;-68
2022/11/21 07:16:33;;;;;;;36.50;14.95;;;1.00;99.90;;;;;;4869420;29;20860;-68
2022/11/21 07:18:59;;;;;;;79.97;14.63;;;1.10;99.90;;;;;;4870726;29;20101;-67
2022/11/21 07:21:25;;;;;;;76.47;14.93;;;1.10;99.90;;;;;;4866151;29;20048;-68
2022/11/21 07:23:50;;;;;;;47.55;15.32;;;1.10;99.90;;;;;;4868169;29;20048;-67
2022/11/21 07:26:16;;;;;;;65.65;14.00;;;1.10;99.90;;;;;;4875616;29;20041;-67
2022/11/21 07:28:42;;;;;;;57.58;15.68;;;1.20;99.90;;;;;;4880126;29;20048;-67
2022/11/21 07:31:09;;;;;;;73.63;16.05;;;1.10;99.90;;;;;;4876980;29;20041;-67
2022/11/21 07:33:36;;;;;;;58.00;16.38;;;1.10;99.90;;;;;;4858152;29;20112;-66
2022/11/21 07:36:02;;;;;;;41.05;15.77;;;1.10;99.90;;;;;;4875254;29;20037;-67
2022/11/21 07:38:27;;;;;;;51.15;17.17;;;1.20;99.90;;;;;;4878302;29;20035;-67
2022/11/21 07:40:55;;;;;;;71.25;17.02;;;1.30;99.90;;;;;;4879442;29;20045;-67
2022/11/21 07:43:21;;;;;;;49.85;16.15;;;1.20;99.90;;;;;;4878120;29;20068;-68
2022/11/21 07:45:47;;;;;;;50.40;15.52;;;1.30;99.90;;;;;;4876295;29;20698;-67
2022/11/21 07:48:12;;;;;;;52.78;15.45;;;1.30;99.90;;;;;;4876871;29;20044;-68
2022/11/21 07:50:38;;;;;;;34.53;14.13;;;1.30;99.90;;;;;;4879238;29;20115;-67
2022/11/21 07:53:06;;;;;;;33.42;15.32;;;1.30;99.90;;;;;;4893919;29;22066;-67
2022/11/21 07:55:32;;;;;;;32.17;15.23;;;1.40;99.90;;;;;;4900341;29;20040;-67
2022/11/21 07:58:02;;;;;;;21.00;12.95;;;1.50;99.90;;;;;;4897226;29;20052;-67
2022/11/21 08:00:29;;;;;;;32.25;15.57;;;1.60;99.90;;;;;;4899955;29;20580;-67
2022/11/21 08:02:55;;;;;;;40.10;14.85;;;1.70;99.90;;;;;;4902048;29;20516;-67
2022/11/21 08:05:21;;;;;;;67.50;14.50;;;1.80;99.90;;;;;;4885391;29;20052;-67
2022/11/21 08:07:47;;;;;;;61.28;15.65;;;1.80;99.90;;;;;;4891438;29;20039;-67
2022/11/21 08:10:13;;;;;;;38.83;14.88;;;1.90;99.90;;;;;;4900372;29;20056;-67
2022/11/21 08:12:39;;;;;;;49.90;14.88;;;1.80;99.90;;;;;;4901180;29;20044;-67
2022/11/21 08:15:05;;;;;;;41.35;17.20;;;1.90;99.90;;;;;;4903847;29;20389;-67
2022/11/21 08:17:31;;;;;;;47.63;16.60;;;1.90;99.90;;;;;;4907751;29;20049;-67
2022/11/21 08:19:59;;;;;;;41.28;17.90;;;1.90;99.90;;;;;;4907247;29;20061;-67
2022/11/21 08:22:24;;;;;;;35.83;17.25;;;2.00;99.90;;;;;;4906884;29;20064;-67
2022/11/21 08:24:50;;;;;;;48.67;19.50;;;2.00;99.90;;;;;;4904583;29;20074;-68
2022/11/21 08:27:19;;;;;;;37.33;19.55;;;2.10;99.90;;;;;;4903672;29;20059;-67
2022/11/21 08:29:45;;;;;;;61.13;18.23;;;2.20;99.90;;;;;;4899799;29;20527;-68
2022/11/21 08:32:11;;;;;;;63.42;20.60;;;2.20;99.90;;;;;;4901369;29;20107;-67
2022/11/21 08:34:36;;;;;;;89.57;23.52;;;2.20;99.90;;;;;;4902057;29;20614;-67
2022/11/21 08:37:02;;;;;;;58.72;19.23;;;2.20;99.90;;;;;;4897263;29;20048;-68
2022/11/21 08:39:29;;;;;;;48.60;17.35;;;2.10;99.90;;;;;;4903512;29;20041;-68
2022/11/21 08:42:01;;;;;;;43.42;17.20;;;2.00;99.90;;;;;;4901715;29;20035;-67
2022/11/21 08:44:28;;;;;;;43.63;17.45;;;2.00;99.90;;;;;;4900726;29;20483;-67
2022/11/21 08:46:54;;;;;;;44.92;19.17;;;2.10;99.90;;;;;;4904247;29;20043;-67
2022/11/21 08:49:20;;;;;;;37.80;15.25;;;2.20;99.90;;;;;;4894168;29;20052;-67
2022/11/21 08:51:48;;;;;;;36.63;13.88;;;2.30;99.90;;;;;;4888435;29;20386;-67
2022/11/21 08:54:24;;;;;;;23.13;13.00;;;2.30;99.90;;;;;;4880799;29;20096;-67
2022/11/21 08:56:50;;;;;;;24.42;13.23;;;2.30;99.90;;;;;;4884362;29;20040;-67
2022/11/21 08:59:16;;;;;;;22.10;12.77;;;2.40;99.90;;;;;;4883106;29;20047;-67
2022/11/21 09:01:43;;;;;;;24.58;12.40;;;2.50;99.90;;;;;;4878810;29;20588;-67
2022/11/21 09:04:09;;;;;;;19.92;12.75;;;2.60;99.90;;;;;;4877159;29;20055;-67
2022/11/21 09:06:35;;;;;;;22.80;13.70;;;2.70;99.90;;;;;;4881505;29;20036;-67
2022/11/21 09:09:03;;;;;;;21.67;12.63;;;2.70;99.90;;;;;;4881750;29;20048;-67
2022/11/21 09:11:29;;;;;;;20.40;12.10;;;2.70;99.90;;;;;;4886545;29;20144;-67
2022/11/21 09:19:23;;;;;;;27.10;14.52;;;2.70;99.90;;;;;;4884255;29;20669;-74
2022/11/21 09:21:49;;;;;;;26.63;15.43;;;2.80;99.90;;;;;;4883539;29;20081;-67
2022/11/21 09:24:15;;;;;;;30.15;14.95;;;2.80;99.90;;;;;;4877642;29;20040;-67
2022/11/21 09:26:41;;;;;;;32.42;15.82;;;2.80;99.90;;;;;;4881880;29;20045;-67
2022/11/21 09:29:09;;;;;;;28.45;16.38;;;2.80;99.90;;;;;;4872170;29;20052;-67
2022/11/21 09:31:38;;;;;;;30.25;16.80;;;2.90;99.90;;;;;;4876840;29;20048;-67
2022/11/21 09:34:03;;;;;;;30.02;15.57;;;3.00;99.90;;;;;;4882856;29;20556;-67
2022/11/21 09:36:29;;;;;;;31.63;18.13;;;3.10;99.90;;;;;;4874039;29;20067;-67
2022/11/21 09:38:54;;;;;;;33.97;16.35;;;2.90;99.90;;;;;;4875694;29;20032;-67
2022/11/21 09:44:39;;;;;;;32.85;16.73;;;3.00;99.90;;;;;;4881091;29;20462;-67
2022/11/21 09:47:19;;;;;;;29.85;16.70;;;3.10;99.90;;;;;;4883066;29;20079;-67
2022/11/21 09:49:52;;;;;;;26.00;16.25;;;3.10;99.90;;;;;;4863764;29;20063;-67
2022/11/21 09:52:21;;;;;;;33.63;16.83;;;3.20;99.90;;;;;;4901235;29;20067;-67
2022/11/21 09:54:51;;;;;;;27.23;14.50;;;3.20;99.90;;;;;;4903974;29;20131;-67
2022/11/21 09:57:20;;;;;;;28.90;15.95;;;3.30;99.90;;;;;;4899754;29;20040;-67
2022/11/21 09:59:47;;;;;;;27.05;15.23;;;3.20;99.90;;;;;;4901523;29;20841;-67
2022/11/21 10:02:15;;;;;;;25.75;15.52;;;3.20;99.90;;;;;;4904235;29;20052;-67
2022/11/21 10:04:41;;;;;;;27.30;14.63;;;3.20;99.90;;;;;;4900554;29;20322;-67
2022/11/21 10:07:17;;;;;;;27.65;14.95;;;3.30;99.90;;;;;;4894090;29;20048;-67
2022/11/21 10:10:03;;;;;;;31.20;17.25;;;3.30;99.90;;;;;;4904158;29;20083;-67
2022/11/21 10:12:48;;;;;;;31.70;17.70;;;3.40;99.90;;;;;;4900705;29;20048;-67
2022/11/21 10:15:31;;;;;;;32.28;18.48;;;3.50;99.90;;;;;;4902690;29;20040;-67
2022/11/21 10:18:38;;;;;;;31.90;17.15;;;3.60;99.90;;;;;;4898711;29;20415;-67
2022/11/21 10:21:28;;;;;;;28.48;16.92;;;3.60;99.90;;;;;;4903511;29;20036;-67
2022/11/21 10:24:28;;;;;;;35.25;18.77;;;3.70;99.90;;;;;;4900590;29;20071;-67
2022/11/21 10:27:01;;;;;;;32.70;19.77;;;3.70;99.90;;;;;;4899299;29;20067;-67
2022/11/21 10:29:46;;;;;;;30.98;18.00;;;3.70;99.90;;;;;;4905836;29;20075;-67
2022/11/21 10:32:26;;;;;;;32.85;17.55;;;3.70;99.90;;;;;;4898513;29;20189;-68
2022/11/21 10:34:56;;;;;;;32.17;19.27;;;3.80;99.90;;;;;;4900116;29;20598;-68
2022/11/21 10:37:25;;;;;;;32.88;21.00;;;3.90;99.90;;;;;;4891733;29;20486;-67
2022/11/21 10:39:52;;;;;;;30.23;16.70;;;3.90;99.90;;;;;;4896831;29;20403;-68
2022/11/21 10:42:20;;;;;;;28.73;18.10;;;4.00;99.90;;;;;;4900996;29;20134;-68
2022/11/21 10:47:32;;;;;;;26.67;17.27;;;4.10;99.90;;;;;;4902750;29;20087;-79
2022/11/21 10:50:13;;;;;;;32.28;17.60;;;4.20;99.90;;;;;;4902954;29;20052;-80
2022/11/21 10:52:50;;;;;;;29.70;17.27;;;4.20;99.90;;;;;;4885092;29;20515;-80
2022/11/21 10:55:17;;;;;;;27.55;16.63;;;4.20;99.90;;;;;;4884064;29;20036;-81
2022/11/21 10:57:48;;;;;;;29.35;17.85;;;4.20;99.90;;;;;;4882763;29;20064;-77
2022/11/21 11:00:19;;;;;;;35.85;18.15;;;4.20;99.90;;;;;;4884198;29;20104;-81
2022/11/21 11:03:03;;;;;;;30.23;18.58;;;4.30;99.90;;;;;;4887256;29;20116;-79
2022/11/21 11:05:36;;;;;;;31.60;18.13;;;4.20;99.90;;;;;;4884841;29;20414;-79
2022/11/21 11:08:04;;;;;;;31.65;18.83;;;4.30;99.90;;;;;;4880323;29;20064;-79
2022/11/21 11:10:54;;;;;;;33.38;18.63;;;4.40;99.90;;;;;;4881231;29;20055;-78
2022/11/21 11:13:32;;;;;;;34.00;19.63;;;4.40;99.90;;;;;;4876009;29;20478;-78
2022/11/21 11:16:05;;;;;;;30.70;19.63;;;4.50;99.90;;;;;;4881031;29;20123;-78
2022/11/21 11:18:34;;;;;;;36.53;22.25;;;4.70;99.90;;;;;;4882780;29;20104;-78
2022/11/21 11:21:30;;;;;;;35.95;20.50;;;4.80;99.90;;;;;;4886450;29;20437;-79
2022/11/21 11:24:08;;;;;;;34.45;21.50;;;4.90;99.90;;;;;;4883185;29;20147;-78
2022/11/21 11:26:48;;;;;;;29.35;19.15;;;5.20;99.90;;;;;;4882980;29;20044;-79
2022/11/21 11:29:18;;;;;;;25.42;17.33;;;5.30;99.90;;;;;;4883558;29;20136;-79
2022/11/21 11:31:59;;;;;;;25.83;18.30;;;5.50;99.90;;;;;;4884166;29;20128;-79
2022/11/21 11:34:50;;;;;;;28.00;19.40;;;5.50;99.90;;;;;;4885877;29;20036;-79
2022/11/21 11:37:31;;;;;;;24.42;17.48;;;5.60;99.90;;;;;;4883396;29;20056;-80
2022/11/21 11:40:14;;;;;;;21.00;15.13;;;5.80;99.90;;;;;;4886817;29;20072;-81
2022/11/21 11:48:38;;;;;;;28.08;18.38;;;6.10;99.90;;;;;;4888260;29;20088;-80
2022/11/21 11:51:30;;;;;;;25.45;18.08;;;6.20;99.90;;;;;;4886345;29;20068;-80
2022/11/21 11:54:06;;;;;;;26.20;18.70;;;6.30;99.90;;;;;;4885812;29;20037;-81
2022/11/21 11:56:37;;;;;;;22.50;16.15;;;6.30;99.90;;;;;;4891534;29;20041;-81
2022/11/21 11:59:06;;;;;;;22.70;15.65;;;6.30;99.90;;;;;;4887669;29;20025;-81
2022/11/21 12:01:40;;;;;;;22.90;15.15;;;6.40;99.90;;;;;;4885319;29;20056;-82
2022/11/21 12:04:15;;;;;;;20.77;14.93;;;6.50;99.90;;;;;;4886174;29;20097;-82
2022/11/21 12:06:41;;;;;;;18.88;13.90;;;6.50;99.90;;;;;;4879189;29;20381;-82
2022/11/21 12:09:34;;;;;;;20.27;14.75;;;6.50;99.90;;;;;;4873581;29;20045;-82
2022/11/21 12:12:32;;;;;;;20.98;14.18;;;6.50;99.90;;;;;;4883961;29;20507;-82
2022/11/21 12:18:06;;;;;;;21.70;14.13;;;6.40;99.90;;;;;;4887647;29;20196;-81
2022/11/21 12:20:38;;;;;;;22.10;14.90;;;6.40;99.90;;;;;;4883892;29;20039;-80
2022/11/21 12:23:09;;;;;;;19.15;14.88;;;6.30;99.90;;;;;;4886339;29;20044;-80
2022/11/21 12:25:40;;;;;;;20.83;14.85;;;6.40;99.90;;;;;;4887329;29;20597;-80
2022/11/21 12:28:17;;;;;;;19.42;13.23;;;6.30;99.90;;;;;;4883942;29;20052;-80
2022/11/21 12:31:14;;;;;;;20.13;13.05;;;6.40;99.90;;;;;;4885178;29;20045;-81
2022/11/21 12:33:57;;;;;;;19.42;13.35;;;6.30;99.90;;;;;;4867494;29;20043;-80
2022/11/21 12:36:59;;;;;;;20.90;13.93;;;6.20;99.90;;;;;;4886632;29;20134;-81
2022/11/21 12:39:54;;;;;;;19.25;13.15;;;6.10;99.90;;;;;;4863596;29;20049;-82
2022/11/21 12:42:50;;;;;;;19.75;13.63;;;6.20;99.90;;;;;;4882959;29;20039;-81
2022/11/21 12:45:36;;;;;;;19.80;12.60;;;6.20;99.90;;;;;;4879574;29;20052;-82
2022/11/21 12:55:16;;;;;;;19.15;13.70;;;6.50;99.90;;;;;;4879580;29;20067;-81
2022/11/21 12:57:58;;;;;;;19.73;13.38;;;6.60;99.90;;;;;;4883230;29;20052;-78
2022/11/21 13:01:10;;;;;;;18.40;12.98;;;6.70;99.90;;;;;;4884814;29;20677;-80
2022/11/21 13:03:43;;;;;;;19.35;13.80;;;6.70;99.90;;;;;;4872170;29;20128;-79
2022/11/21 13:06:30;;;;;;;17.50;12.60;;;6.80;99.90;;;;;;4869557;29;20036;-78
2022/11/21 13:09:01;;;;;;;18.80;11.85;;;6.90;99.90;;;;;;4875672;29;20760;-81
2022/11/21 13:11:58;;;;;;;18.50;12.90;;;7.00;99.90;;;;;;4869042;29;20080;-81
2022/11/21 13:14:32;;;;;;;15.70;11.18;;;7.00;99.90;;;;;;4856349;29;20077;-80
2022/11/21 13:17:10;;;;;;;16.23;12.25;;;7.00;99.90;;;;;;4861094;29;20108;-80
2022/11/21 13:19:58;;;;;;;16.50;12.38;;;7.20;99.90;;;;;;4872166;29;20125;-79
2022/11/21 13:22:36;;;;;;;16.77;12.43;;;7.40;99.90;;;;;;4877910;29;20592;-80